sensor_id;sensor_type;location;lat;lon;timestamp;pressure;altitude;pressure_sealevel;temperature;humidity
56632;BME280;42503;39.928;-75.152;2023-04-04T00:07:51;101507.22;;;23.46;37.78
56632;BME280;42503;39.928;-75.152;2023-04-04T00:17:53;101505.81;;;23.44;37.84
56632;BME280;42503;39.928;-75.152;2023-04-04T00:28:01;101505.88;;;23.33;38.07
56632;BME280;42503;39.928;-75.152;2023-04-04T00:38:03;101504.75;;;23.34;37.91
56632;BME280;42503;39.928;-75.152;2023-04-04T00:48:07;101522.97;;;23.06;38.40
56632;BME280;42503;39.928;-75.152;2023-04-04T00:58:09;101393.22;;;22.07;38.36
56632;BME280;42503;39.928;-75.152;2023-04-04T01:08:11;101535.53;;;22.99;38.25
56632;BME280;42503;39.928;-75.152;2023-04-04T01:18:15;101528.56;;;22.91;38.66
56632;BME280;42503;39.928;-75.152;2023-04-04T01:28:18;101558.69;;;22.89;38.59
56632;BME280;42503;39.928;-75.152;2023-04-04T01:48:39;101532.72;;;22.78;38.64
56632;BME280;42503;39.928;-75.152;2023-04-04T01:58:46;101529.38;;;22.87;38.52
56632;BME280;42503;39.928;-75.152;2023-04-04T02:08:48;101517.09;;;22.77;38.87
56632;BME280;42503;39.928;-75.152;2023-04-04T02:18:50;101514.56;;;22.81;38.78
56632;BME280;42503;39.928;-75.152;2023-04-04T02:28:51;101503.16;;;22.77;38.65
56632;BME280;42503;39.928;-75.152;2023-04-04T02:38:53;101505.38;;;22.91;38.41
56632;BME280;42503;39.928;-75.152;2023-04-04T02:48:54;101493.13;;;22.92;38.62
56632;BME280;42503;39.928;-75.152;2023-04-04T02:58:56;101489.75;;;22.90;38.01
56632;BME280;42503;39.928;-75.152;2023-04-04T03:08:57;101476.88;;;23.09;37.83
56632;BME280;42503;39.928;-75.152;2023-04-04T03:18:58;101474.09;;;23.14;37.13
56632;BME280;42503;39.928;-75.152;2023-04-04T03:29:00;101486.91;;;23.20;36.92
56632;BME280;42503;39.928;-75.152;2023-04-04T03:39:04;101467.94;;;23.12;37.15
56632;BME280;42503;39.928;-75.152;2023-04-04T03:49:08;101471.28;;;23.19;36.91
56632;BME280;42503;39.928;-75.152;2023-04-04T03:59:12;101454.81;;;23.13;36.76
56632;BME280;42503;39.928;-75.152;2023-04-04T04:09:19;101451.75;;;23.09;36.52
56632;BME280;42503;39.928;-75.152;2023-04-04T04:19:21;101437.22;;;23.12;36.51
56632;BME280;42503;39.928;-75.152;2023-04-04T04:29:22;101455.66;;;23.23;36.41
56632;BME280;42503;39.928;-75.152;2023-04-04T04:39:24;101440.28;;;23.21;36.33
56632;BME280;42503;39.928;-75.152;2023-04-04T04:49:25;101419.66;;;23.12;36.55
56632;BME280;42503;39.928;-75.152;2023-04-04T04:59:27;101421.88;;;23.20;36.39
56632;BME280;42503;39.928;-75.152;2023-04-04T05:09:29;101436.34;;;23.27;36.22
56632;BME280;42503;39.928;-75.152;2023-04-04T05:19:30;101422.13;;;23.23;35.87
56632;BME280;42503;39.928;-75.152;2023-04-04T05:29:32;101423.81;;;23.24;35.71
56632;BME280;42503;39.928;-75.152;2023-04-04T05:39:33;101412.38;;;23.21;35.84
56632;BME280;42503;39.928;-75.152;2023-04-04T05:49:35;101401.75;;;23.18;35.52
56632;BME280;42503;39.928;-75.152;2023-04-04T05:59:36;101377.78;;;23.12;35.86
56632;BME280;42503;39.928;-75.152;2023-04-04T06:09:38;101378.03;;;23.20;36.05
56632;BME280;42503;39.928;-75.152;2023-04-04T06:19:41;101364.66;;;23.12;36.04
56632;BME280;42503;39.928;-75.152;2023-04-04T06:29:47;101339.88;;;22.95;35.71
56632;BME280;42503;39.928;-75.152;2023-04-04T06:39:49;101368.00;;;23.09;35.35
56632;BME280;42503;39.928;-75.152;2023-04-04T06:49:53;101363.53;;;23.13;35.74
56632;BME280;42503;39.928;-75.152;2023-04-04T06:59:55;101348.50;;;23.04;35.46
56632;BME280;42503;39.928;-75.152;2023-04-04T07:09:56;101318.69;;;22.89;35.48
56632;BME280;42503;39.928;-75.152;2023-04-04T07:19:57;101346.03;;;22.97;35.50
56632;BME280;42503;39.928;-75.152;2023-04-04T07:29:59;101363.03;;;23.01;35.55
56632;BME280;42503;39.928;-75.152;2023-04-04T07:40:00;101368.03;;;23.04;35.48
56632;BME280;42503;39.928;-75.152;2023-04-04T07:50:05;101355.75;;;23.00;35.83
56632;BME280;42503;39.928;-75.152;2023-04-04T08:00:07;101365.81;;;23.01;35.56
56632;BME280;42503;39.928;-75.152;2023-04-04T08:10:12;101364.44;;;22.98;35.46
56632;BME280;42503;39.928;-75.152;2023-04-04T08:20:16;101371.69;;;22.94;35.52
56632;BME280;42503;39.928;-75.152;2023-04-04T08:30:21;101342.44;;;22.71;35.32
56632;BME280;42503;39.928;-75.152;2023-04-04T08:40:22;101385.38;;;22.91;35.39
56632;BME280;42503;39.928;-75.152;2023-04-04T08:50:29;101360.28;;;22.75;35.72
56632;BME280;42503;39.928;-75.152;2023-04-04T09:00:31;101376.44;;;22.89;35.39
56632;BME280;42503;39.928;-75.152;2023-04-04T09:10:32;101380.63;;;22.86;35.48
56632;BME280;42503;39.928;-75.152;2023-04-04T09:20:40;101356.38;;;22.71;35.68
56632;BME280;42503;39.928;-75.152;2023-04-04T09:30:42;101392.34;;;22.88;35.50
56632;BME280;42503;39.928;-75.152;2023-04-04T09:40:46;101394.31;;;22.82;35.73
56632;BME280;42503;39.928;-75.152;2023-04-04T09:50:48;101413.56;;;22.84;35.75
56632;BME280;42503;39.928;-75.152;2023-04-04T10:00:52;101436.72;;;22.84;35.48
56632;BME280;42503;39.928;-75.152;2023-04-04T10:11:04;101433.38;;;22.72;35.83
56632;BME280;42503;39.928;-75.152;2023-04-04T10:21:07;101454.59;;;22.78;35.59
56632;BME280;42503;39.928;-75.152;2023-04-04T10:31:23;101466.31;;;22.75;35.86
56632;BME280;42503;39.928;-75.152;2023-04-04T10:41:26;101436.75;;;22.54;35.74
56632;BME280;42503;39.928;-75.152;2023-04-04T10:51:31;101488.63;;;22.75;39.63
56632;BME280;42503;39.928;-75.152;2023-04-04T11:01:59;101492.81;;;22.68;38.23
56632;BME280;42503;39.928;-75.152;2023-04-04T11:12:08;101474.72;;;22.50;39.78
56632;BME280;42503;39.928;-75.152;2023-04-04T11:22:11;101505.09;;;22.46;39.35
56632;BME280;42503;39.928;-75.152;2023-04-04T11:32:32;101547.75;;;22.42;39.75
56632;BME280;42503;39.928;-75.152;2023-04-04T11:42:50;101571.19;;;22.41;39.16
56632;BME280;42503;39.928;-75.152;2023-04-04T11:52:52;101573.94;;;22.36;39.21
56632;BME280;42503;39.928;-75.152;2023-04-04T12:02:55;101559.13;;;22.20;39.19
56632;BME280;42503;39.928;-75.152;2023-04-04T12:12:58;101582.88;;;22.27;39.07
56632;BME280;42503;39.928;-75.152;2023-04-04T12:22:59;101551.56;;;22.10;39.20
56632;BME280;42503;39.928;-75.152;2023-04-04T12:33:04;101541.00;;;22.12;39.72
56632;BME280;42503;39.928;-75.152;2023-04-04T12:43:14;101563.88;;;22.19;39.58
56632;BME280;42503;39.928;-75.152;2023-04-04T12:53:21;101563.03;;;22.19;39.27
56632;BME280;42503;39.928;-75.152;2023-04-04T13:03:23;101571.66;;;22.17;39.39
56632;BME280;42503;39.928;-75.152;2023-04-04T13:13:36;101572.19;;;22.09;39.47
56632;BME280;42503;39.928;-75.152;2023-04-04T13:23:47;101596.75;;;22.12;39.61
56632;BME280;42503;39.928;-75.152;2023-04-04T13:33:48;101592.88;;;22.13;39.59
56632;BME280;42503;39.928;-75.152;2023-04-04T13:43:50;101583.88;;;22.11;39.84
56632;BME280;42503;39.928;-75.152;2023-04-04T13:53:52;101584.75;;;22.12;41.00
56632;BME280;42503;39.928;-75.152;2023-04-04T14:03:54;101600.41;;;22.18;41.26
56632;BME280;42503;39.928;-75.152;2023-04-04T14:13:56;101589.53;;;22.26;40.98
56632;BME280;42503;39.928;-75.152;2023-04-04T14:23:58;101585.66;;;22.22;41.33
56632;BME280;42503;39.928;-75.152;2023-04-04T14:34:00;101593.44;;;22.20;41.41
56632;BME280;42503;39.928;-75.152;2023-04-04T14:44:01;101588.97;;;22.19;41.30
56632;BME280;42503;39.928;-75.152;2023-04-04T14:54:05;101552.63;;;21.99;41.46
56632;BME280;42503;39.928;-75.152;2023-04-04T15:04:09;101589.53;;;22.21;41.28
56632;BME280;42503;39.928;-75.152;2023-04-04T15:14:11;101555.72;;;22.07;41.31
56632;BME280;42503;39.928;-75.152;2023-04-04T15:24:15;101578.94;;;22.18;41.31
56632;BME280;42503;39.928;-75.152;2023-04-04T15:34:17;101576.16;;;22.23;40.81
56632;BME280;42503;39.928;-75.152;2023-04-04T15:44:18;101580.63;;;22.24;40.99
56632;BME280;42503;39.928;-75.152;2023-04-04T15:54:22;101464.47;;;21.62;40.68
56632;BME280;42503;39.928;-75.152;2023-04-04T16:04:28;101562.78;;;22.25;40.76
56632;BME280;42503;39.928;-75.152;2023-04-04T16:14:33;101544.91;;;22.16;40.95
56632;BME280;42503;39.928;-75.152;2023-04-04T16:24:37;101549.41;;;22.27;40.83
56632;BME280;42503;39.928;-75.152;2023-04-04T16:34:39;101540.47;;;22.25;40.62
56632;BME280;42503;39.928;-75.152;2023-04-04T16:44:40;101522.06;;;22.24;40.63
56632;BME280;42503;39.928;-75.152;2023-04-04T16:54:42;101525.16;;;22.23;41.12
56632;BME280;42503;39.928;-75.152;2023-04-04T17:04:43;101491.34;;;22.09;40.69
56632;BME280;42503;39.928;-75.152;2023-04-04T17:14:45;101497.53;;;22.21;40.70
56632;BME280;42503;39.928;-75.152;2023-04-04T17:24:47;101481.91;;;22.20;40.76
56632;BME280;42503;39.928;-75.152;2023-04-04T17:34:48;101476.09;;;22.27;40.79
56632;BME280;42503;39.928;-75.152;2023-04-04T17:44:50;101462.41;;;22.25;40.69
56632;BME280;42503;39.928;-75.152;2023-04-04T17:54:54;101453.50;;;22.28;40.30
56632;BME280;42503;39.928;-75.152;2023-04-04T18:04:58;101451.25;;;22.36;40.55
56632;BME280;42503;39.928;-75.152;2023-04-04T18:15:00;101446.25;;;22.38;40.18
56632;BME280;42503;39.928;-75.152;2023-04-04T18:25:02;101420.03;;;22.28;40.08
56632;BME280;42503;39.928;-75.152;2023-04-04T18:35:04;101450.72;;;22.44;40.39
56632;BME280;42503;39.928;-75.152;2023-04-04T18:45:07;101427.00;;;22.31;40.62
56632;BME280;42503;39.928;-75.152;2023-04-04T18:55:09;101415.28;;;22.34;40.31
56632;BME280;42503;39.928;-75.152;2023-04-04T19:05:11;101423.38;;;22.46;40.71
56632;BME280;42503;39.928;-75.152;2023-04-04T19:15:13;101396.34;;;22.36;40.37
56632;BME280;42503;39.928;-75.152;2023-04-04T19:25:15;101393.84;;;22.50;40.34
56632;BME280;42503;39.928;-75.152;2023-04-04T19:35:47;101386.00;;;22.57;40.96
56632;BME280;42503;39.928;-75.152;2023-04-04T19:45:57;101387.66;;;22.68;40.78
56632;BME280;42503;39.928;-75.152;2023-04-04T19:56:09;101371.16;;;22.72;40.92
56632;BME280;42503;39.928;-75.152;2023-04-04T20:16:21;101362.56;;;22.68;41.18
56632;BME280;42503;39.928;-75.152;2023-04-04T20:26:41;101359.47;;;22.70;41.04
56632;BME280;42503;39.928;-75.152;2023-04-04T20:36:49;101364.44;;;22.93;40.19
56632;BME280;42503;39.928;-75.152;2023-04-04T20:57:47;101345.13;;;23.07;41.71
56632;BME280;42503;39.928;-75.152;2023-04-04T21:07:52;101350.13;;;23.15;41.06
56632;BME280;42503;39.928;-75.152;2023-04-04T21:17:57;101350.09;;;23.20;42.49
56632;BME280;42503;39.928;-75.152;2023-04-04T21:28:05;101368.53;;;23.21;41.62
56632;BME280;42503;39.928;-75.152;2023-04-04T21:38:31;101362.97;;;23.16;41.31
56632;BME280;42503;39.928;-75.152;2023-04-04T21:48:46;101379.13;;;23.24;41.74
56632;BME280;42503;39.928;-75.152;2023-04-04T21:58:48;101377.19;;;23.20;41.90
56632;BME280;42503;39.928;-75.152;2023-04-04T22:08:54;101423.47;;;23.31;42.15
56632;BME280;42503;39.928;-75.152;2023-04-04T22:18:58;101404.00;;;23.16;42.89
56632;BME280;42503;39.928;-75.152;2023-04-04T22:29:02;101455.25;;;23.45;42.75
56632;BME280;42503;39.928;-75.152;2023-04-04T22:39:04;101458.88;;;23.46;42.87
56632;BME280;42503;39.928;-75.152;2023-04-04T22:49:05;101467.84;;;23.48;43.13
56632;BME280;42503;39.928;-75.152;2023-04-04T22:59:11;101476.19;;;23.53;43.37
56632;BME280;42503;39.928;-75.152;2023-04-04T23:09:22;101496.88;;;23.52;43.35
56632;BME280;42503;39.928;-75.152;2023-04-04T23:19:24;101494.63;;;23.54;43.20
56632;BME280;42503;39.928;-75.152;2023-04-04T23:29:26;101497.97;;;23.56;43.42
56632;BME280;42503;39.928;-75.152;2023-04-04T23:39:27;101524.22;;;23.60;43.13
56632;BME280;42503;39.928;-75.152;2023-04-04T23:49:30;101528.13;;;23.54;43.84
56632;BME280;42503;39.928;-75.152;2023-04-04T23:59:41;101548.25;;;23.56;43.28
